createdAt,value
2023-04-02T00:01:28.595Z,97564.41
2023-04-02T00:03:59.632Z,97559.47
2023-04-02T00:06:30.204Z,97553.47
2023-04-02T00:09:04.609Z,97565.19
2023-04-02T00:11:35.246Z,97556.53
2023-04-02T00:14:04.306Z,97557.38
2023-04-02T00:16:32.002Z,97554.84
2023-04-02T00:19:04.217Z,97555.91
2023-04-02T00:21:38.854Z,97550.72
2023-04-02T00:24:19.470Z,97538.41
2023-04-02T00:26:51.879Z,97545.69
2023-04-02T00:29:19.698Z,97544.22
2023-04-02T00:31:52.588Z,97542.53
2023-04-02T00:34:45.728Z,97550.56
2023-04-02T00:37:24.019Z,97547.19
2023-04-02T00:40:02.138Z,97536.94
2023-04-02T00:42:31.215Z,97544.44
2023-04-02T00:44:59.056Z,97539.38
2023-04-02T00:47:31.850Z,97523.59
2023-04-02T00:50:05.909Z,97546.56
2023-04-02T00:52:35.011Z,97542.66
2023-04-02T00:55:08.036Z,97544.88
2023-04-02T00:57:35.096Z,97534.53
2023-04-02T01:00:19.757Z,97517.81
2023-04-02T01:03:19.102Z,97515.06
2023-04-02T01:06:04.687Z,97528.34
2023-04-02T01:09:04.896Z,97522.66
2023-04-02T01:12:05.199Z,97522.34
2023-04-02T01:14:42.129Z,97525.28
2023-04-02T01:17:32.015Z,97529.50
2023-04-02T01:20:26.646Z,97522.09
2023-04-02T01:23:14.907Z,97524.53
2023-04-02T01:25:48.593Z,97513.13
2023-04-02T01:28:25.703Z,97509.47
2023-04-02T01:30:55.965Z,97508.41
2023-04-02T01:33:28.257Z,97490.00
2023-04-02T01:36:10.617Z,97483.56
2023-04-02T01:38:45.998Z,97478.94
2023-04-02T01:41:30.901Z,97499.69
2023-04-02T01:44:08.041Z,97502.38
2023-04-02T01:46:38.394Z,97502.16
2023-04-02T01:49:13.863Z,97496.38
2023-04-02T01:51:45.545Z,97491.13
2023-04-02T01:54:16.570Z,97499.03
2023-04-02T01:56:44.418Z,97513.59
2023-04-02T01:59:12.298Z,97514.31
2023-04-02T02:01:49.156Z,97510.53
2023-04-02T02:04:17.223Z,97502.75
2023-04-02T02:06:45.705Z,97514.13
2023-04-02T02:09:19.693Z,97513.16
2023-04-02T02:11:46.923Z,97519.56
2023-04-02T02:14:23.369Z,97520.56
2023-04-02T02:16:53.487Z,97513.59
2023-04-02T02:19:24.328Z,97503.09
2023-04-02T02:22:16.854Z,97494.72
2023-04-02T02:24:44.421Z,97483.16
2023-04-02T02:27:23.222Z,97501.22
2023-04-02T02:29:56.001Z,97504.81
2023-04-02T02:32:28.992Z,97508.38
2023-04-02T02:35:19.191Z,97500.97
2023-04-02T02:37:52.754Z,97490.91
2023-04-02T02:40:31.661Z,97491.03
2023-04-02T02:43:02.990Z,97478.16
2023-04-02T02:45:37.874Z,97478.03
2023-04-02T02:48:10.904Z,97485.28
2023-04-02T02:50:38.517Z,97487.50
2023-04-02T02:53:21.286Z,97483.63
2023-04-02T02:55:53.118Z,97489.56
2023-04-02T02:58:32.746Z,97497.06
2023-04-02T03:01:13.502Z,97501.47
2023-04-02T03:03:44.872Z,97497.13
2023-04-02T03:06:16.817Z,97501.66
2023-04-02T03:09:01.886Z,97494.22
2023-04-02T03:12:21.738Z,97499.91
2023-04-02T03:15:11.593Z,97503.69
2023-04-02T03:17:52.314Z,97504.09
2023-04-02T03:20:22.262Z,97509.44
2023-04-02T03:22:56.275Z,97511.53
2023-04-02T03:25:38.745Z,97511.28
2023-04-02T03:28:13.081Z,97518.25
2023-04-02T03:31:03.196Z,97524.94
2023-04-02T03:34:04.962Z,97514.25
2023-04-02T03:36:43.758Z,97518.16
2023-04-02T03:39:19.235Z,97508.94
2023-04-02T03:41:58.651Z,97511.38
2023-04-02T03:44:46.595Z,97520.75
2023-04-02T03:47:19.651Z,97518.50
2023-04-02T03:49:53.647Z,97517.84
2023-04-02T03:52:26.521Z,97523.03
2023-04-02T03:54:57.079Z,97526.38
2023-04-02T03:57:27.186Z,97529.00
2023-04-02T04:00:02.412Z,97533.72
2023-04-02T04:02:41.270Z,97537.88
2023-04-02T04:05:29.527Z,97527.66
2023-04-02T04:08:21.231Z,97534.88
2023-04-02T04:10:53.975Z,97537.84
2023-04-02T04:13:40.635Z,97535.13
2023-04-02T04:16:12.278Z,97541.88
2023-04-02T04:19:03.672Z,97543.38
2023-04-02T04:21:38.803Z,97554.72
2023-04-02T04:24:22.954Z,97557.44
2023-04-02T04:27:09.525Z,97558.59
2023-04-02T04:30:04.221Z,97575.97
2023-04-02T04:32:39.313Z,97586.50
2023-04-02T04:35:35.171Z,97578.81
2023-04-02T04:38:12.208Z,97579.47
2023-04-02T04:40:54.124Z,97583.75
2023-04-02T04:43:52.392Z,97575.16
2023-04-02T04:47:08.767Z,97579.84
2023-04-02T04:49:54.017Z,97572.03
2023-04-02T04:52:29.370Z,97565.47
2023-04-02T04:54:57.005Z,97567.63
2023-04-02T04:57:34.544Z,97569.78
2023-04-02T05:00:27.480Z,97571.38
2023-04-02T05:03:06.113Z,97573.53
2023-04-02T05:05:39.330Z,97589.66
2023-04-02T05:08:21.055Z,97581.66
2023-04-02T05:10:52.323Z,97579.03
2023-04-02T05:13:36.114Z,97581.78
2023-04-02T05:16:23.753Z,97578.47
2023-04-02T05:19:02.399Z,97591.72
2023-04-02T05:21:40.890Z,97598.50
2023-04-02T05:24:44.395Z,97594.72
2023-04-02T05:27:37.709Z,97610.50
2023-04-02T05:30:32.364Z,97610.41
2023-04-02T05:33:17.578Z,97612.19
2023-04-02T05:35:51.221Z,97623.47
2023-04-02T05:38:28.564Z,97617.16
2023-04-02T05:41:05.893Z,97601.38
2023-04-02T05:43:35.587Z,97616.59
2023-04-02T05:46:16.983Z,97605.69
2023-04-02T05:48:52.155Z,97611.22
2023-04-02T05:51:31.656Z,97617.50
2023-04-02T05:54:01.749Z,97614.88
2023-04-02T05:56:35.035Z,97617.31
2023-04-02T05:59:47.805Z,97624.63
2023-04-02T06:02:36.558Z,97626.59
2023-04-02T06:05:15.914Z,97641.25
2023-04-02T06:07:57.146Z,97639.16
2023-04-02T06:10:26.881Z,97639.81
2023-04-02T06:13:05.341Z,97647.69
2023-04-02T06:15:37.988Z,97653.06
2023-04-02T06:18:36.872Z,97652.22
2023-04-02T06:21:15.584Z,97658.44
2023-04-02T06:23:46.783Z,97666.88
2023-04-02T06:26:22.125Z,97666.13
2023-04-02T06:29:28.783Z,97667.31
2023-04-02T06:32:00.764Z,97667.22
2023-04-02T06:34:31.015Z,97679.03
2023-04-02T06:37:33.550Z,97680.97
2023-04-02T06:40:33.501Z,97695.78
2023-04-02T06:43:16.845Z,97704.97
2023-04-02T06:46:28.934Z,97707.28
2023-04-02T06:49:19.540Z,97704.88
2023-04-02T06:51:51.890Z,97711.78
2023-04-02T06:54:19.647Z,97710.84
2023-04-02T06:56:53.819Z,97717.94
2023-04-02T06:59:31.883Z,97723.66
2023-04-02T07:02:15.452Z,97735.28
2023-04-02T07:04:43.128Z,97729.91
2023-04-02T07:07:10.041Z,97750.56
2023-04-02T07:09:40.557Z,97768.72
2023-04-02T07:12:12.989Z,97769.25
2023-04-02T07:14:40.360Z,97780.56
2023-04-02T07:17:07.742Z,97781.94
2023-04-02T07:19:34.796Z,97786.16
2023-04-02T07:22:02.063Z,97773.69
2023-04-02T07:24:34.935Z,97784.66
2023-04-02T07:27:01.959Z,97789.00
2023-04-02T07:29:29.144Z,97806.31
2023-04-02T07:31:56.431Z,97802.94
2023-04-02T07:34:23.182Z,97807.97
2023-04-02T07:36:49.979Z,97832.41
2023-04-02T07:39:22.138Z,97818.00
2023-04-02T07:41:59.745Z,97835.84
2023-04-02T07:44:26.861Z,97830.84
2023-04-02T07:46:54.485Z,97857.56
2023-04-02T07:49:27.161Z,97839.66
2023-04-02T07:51:53.855Z,97857.75
2023-04-02T07:54:20.557Z,97868.31
2023-04-02T07:56:47.745Z,97871.09
2023-04-02T07:59:14.357Z,97875.88
2023-04-02T08:01:43.055Z,97881.97
2023-04-02T08:04:18.830Z,97875.81
2023-04-02T08:06:46.100Z,97879.97
2023-04-02T08:09:13.579Z,97891.38
2023-04-02T08:11:42.193Z,97883.69
2023-04-02T08:14:10.332Z,97876.75
2023-04-02T08:17:03.446Z,97894.72
2023-04-02T08:19:30.770Z,97885.06
2023-04-02T08:21:57.459Z,97893.25
2023-04-02T08:24:24.257Z,97892.66
2023-04-02T08:26:54.537Z,97888.94
2023-04-02T08:29:22.058Z,97900.03
2023-04-02T08:31:48.855Z,97898.31
2023-04-02T08:34:15.606Z,97893.88
2023-04-02T08:36:45.493Z,97900.59
2023-04-02T08:39:12.812Z,97902.41
2023-04-02T08:41:47.302Z,97904.81
2023-04-02T08:44:32.399Z,97904.84
2023-04-02T08:46:59.344Z,97898.25
2023-04-02T08:49:35.880Z,97900.88
2023-04-02T08:52:02.605Z,97902.66
2023-04-02T08:54:32.618Z,97904.16
2023-04-02T08:57:21.597Z,97906.81
2023-04-02T09:00:01.937Z,97913.47
2023-04-02T09:02:40.719Z,97907.84
2023-04-02T09:05:17.751Z,97919.22
2023-04-02T09:07:47.244Z,97914.81
2023-04-02T09:10:16.662Z,97920.22
2023-04-02T09:12:48.463Z,97913.19
2023-04-02T09:15:26.265Z,97919.03
2023-04-02T09:18:03.957Z,97917.50
2023-04-02T09:20:30.862Z,97910.97
2023-04-02T09:22:58.281Z,97920.00
2023-04-02T09:25:29.792Z,97924.53
2023-04-02T09:28:00.774Z,97921.09
2023-04-02T09:30:33.379Z,97925.63
2023-04-02T09:33:07.781Z,97921.16
2023-04-02T09:35:50.139Z,97930.13
2023-04-02T09:38:23.373Z,97929.03
2023-04-02T09:41:02.604Z,97922.56
2023-04-02T09:43:35.855Z,97920.31
2023-04-02T09:46:06.830Z,97925.50
2023-04-02T09:48:44.402Z,97924.91
2023-04-02T09:51:23.633Z,97929.78
2023-04-02T09:54:07.743Z,97934.09
2023-04-02T09:56:37.946Z,97937.25
2023-04-02T09:59:07.414Z,97934.56
2023-04-02T10:01:42.275Z,97934.00
2023-04-02T10:04:37.025Z,97935.31
2023-04-02T10:07:10.317Z,97946.63
2023-04-02T10:09:39.511Z,97936.09
2023-04-02T10:12:12.668Z,97936.63
2023-04-02T10:14:48.701Z,97940.81
2023-04-02T10:17:45.194Z,97935.41
2023-04-02T10:20:21.269Z,97934.84
2023-04-02T10:22:48.780Z,97930.41
2023-04-02T10:25:17.590Z,97935.94
2023-04-02T10:28:03.858Z,97933.59
2023-04-02T10:30:42.965Z,97938.44
2023-04-02T10:33:23.097Z,97935.50
2023-04-02T10:36:04.342Z,97943.13
2023-04-02T10:39:10.376Z,97938.56
2023-04-02T10:42:13.153Z,97934.94
2023-04-02T10:44:51.422Z,97930.09
2023-04-02T10:47:38.784Z,97933.13
2023-04-02T10:50:41.092Z,97940.72
2023-04-02T10:53:08.373Z,97927.53
2023-04-02T10:55:43.528Z,97923.50
2023-04-02T10:58:29.499Z,97923.41
2023-04-02T11:01:07.656Z,97925.53
2023-04-02T11:04:00.761Z,97918.03
2023-04-02T11:06:36.487Z,97925.78
2023-04-02T11:09:08.886Z,97921.78
2023-04-02T11:11:41.694Z,97902.53
2023-04-02T11:14:21.553Z,97919.91
2023-04-02T11:16:50.208Z,97906.66
2023-04-02T11:19:16.947Z,97918.91
2023-04-02T11:22:18.177Z,97919.59
2023-04-02T11:24:53.302Z,97921.19
2023-04-02T11:27:37.015Z,97917.66
2023-04-02T11:30:15.997Z,97921.44
2023-04-02T11:32:49.559Z,97914.50
2023-04-02T11:35:31.792Z,97913.00
2023-04-02T11:38:10.923Z,97913.28
2023-04-02T11:40:41.017Z,97914.13
2023-04-02T11:43:38.248Z,97910.22
2023-04-02T11:46:26.234Z,97906.50
2023-04-02T11:48:55.125Z,97909.47
2023-04-02T11:51:41.943Z,97913.47
2023-04-02T11:54:23.924Z,97901.69
2023-04-02T11:57:20.253Z,97905.78
2023-04-02T12:00:21.574Z,97906.97
2023-04-02T12:03:13.541Z,97908.00
2023-04-02T12:05:48.686Z,97905.81
2023-04-02T12:08:24.050Z,97904.94
2023-04-02T12:10:58.111Z,97902.16
2023-04-02T12:13:40.059Z,97898.91
2023-04-02T12:16:08.865Z,97892.25
2023-04-02T12:18:36.345Z,97886.59
2023-04-02T12:21:03.398Z,97885.84
2023-04-02T12:23:31.493Z,97887.97
2023-04-02T12:25:59.815Z,97888.50
2023-04-02T12:28:33.872Z,97884.56
2023-04-02T12:31:09.888Z,97875.91
2023-04-02T12:33:38.200Z,97885.31
2023-04-02T12:36:16.685Z,97882.28
2023-04-02T12:38:55.182Z,97878.91
2023-04-02T12:41:32.336Z,97870.88
2023-04-02T12:44:05.083Z,97876.78
2023-04-02T12:46:34.384Z,97879.50
2023-04-02T12:49:16.705Z,97876.28
2023-04-02T12:51:43.504Z,97868.28
2023-04-02T12:54:15.666Z,97873.78
2023-04-02T12:56:42.378Z,97869.97
2023-04-02T12:59:42.895Z,97869.34
2023-04-02T13:02:33.305Z,97872.88
2023-04-02T13:05:02.747Z,97865.88
2023-04-02T13:07:32.904Z,97866.81
2023-04-02T13:10:06.393Z,97861.03
2023-04-02T13:12:36.621Z,97859.56
2023-04-02T13:15:07.744Z,97869.97
2023-04-02T13:17:47.916Z,97854.31
2023-04-02T13:20:36.429Z,97859.88
2023-04-02T13:23:29.073Z,97852.88
2023-04-02T13:25:58.521Z,97845.81
2023-04-02T13:28:25.443Z,97842.41
2023-04-02T13:30:52.106Z,97866.75
2023-04-02T13:33:20.485Z,97864.88
2023-04-02T13:35:47.440Z,97868.59
2023-04-02T13:38:14.186Z,97869.13
2023-04-02T13:40:41.350Z,97871.19
2023-04-02T13:43:15.203Z,97870.25
2023-04-02T13:45:42.450Z,97873.00
2023-04-02T13:48:14.738Z,97876.00
2023-04-02T13:50:42.550Z,97872.09
2023-04-02T13:53:21.246Z,97874.38
2023-04-02T13:55:48.767Z,97865.44
2023-04-02T13:58:15.647Z,97873.28
2023-04-02T14:00:42.370Z,97884.06
2023-04-02T14:03:13.948Z,97887.75
2023-04-02T14:06:32.053Z,97916.63
2023-04-02T14:09:08.767Z,97910.69
2023-04-02T14:12:06.061Z,97901.41
2023-04-02T14:14:41.267Z,97918.41
2023-04-02T14:17:21.930Z,97932.22
2023-04-02T14:20:00.130Z,97932.94
2023-04-02T14:23:15.347Z,97941.09
2023-04-02T14:25:59.995Z,97939.75
2023-04-02T14:28:57.491Z,97941.41
2023-04-02T14:34:20.096Z,97931.69
2023-04-02T14:36:59.472Z,97939.53
2023-04-02T14:39:26.321Z,97936.25
2023-04-02T14:41:59.896Z,97936.44
2023-04-02T14:44:32.989Z,97936.44
2023-04-02T14:47:17.658Z,97938.50
2023-04-02T14:49:49.642Z,97935.59
2023-04-02T14:52:20.753Z,97934.91
2023-04-02T14:55:02.456Z,97939.63
2023-04-02T14:57:48.988Z,97942.00
2023-04-02T15:00:28.046Z,97938.94
2023-04-02T15:03:24.960Z,97941.81
2023-04-02T15:06:04.929Z,97948.34
2023-04-02T15:08:39.398Z,97937.16
2023-04-02T15:11:16.985Z,97947.91
2023-04-02T15:13:52.387Z,97933.59
2023-04-02T15:16:26.802Z,97939.75
2023-04-02T15:18:57.160Z,97938.78
2023-04-02T15:21:57.642Z,97933.75
2023-04-02T15:24:47.686Z,97939.25
2023-04-02T15:27:37.572Z,97938.97
2023-04-02T15:30:18.959Z,97928.84
2023-04-02T15:32:46.943Z,97940.09
2023-04-02T15:35:45.590Z,97944.31
2023-04-02T15:38:19.079Z,97951.84
2023-04-02T15:41:00.612Z,97944.84
2023-04-02T15:43:29.833Z,97950.91
2023-04-02T15:45:56.488Z,97959.03
2023-04-02T15:48:56.677Z,97964.09
2023-04-02T15:51:23.343Z,97961.16
2023-04-02T15:54:14.146Z,97969.84
2023-04-02T15:57:02.795Z,97962.84
2023-04-02T15:59:54.740Z,97982.19
2023-04-02T16:02:40.116Z,97979.22
2023-04-02T16:05:38.646Z,97989.19
2023-04-02T16:08:38.620Z,97983.88
2023-04-02T16:11:11.464Z,97996.75
2023-04-02T16:13:39.662Z,97995.78
2023-04-02T16:16:12.286Z,98011.75
2023-04-02T16:19:15.915Z,98025.34
2023-04-02T16:21:56.775Z,98031.38
2023-04-02T16:24:23.554Z,98046.06
2023-04-02T16:27:00.046Z,98046.22
2023-04-02T16:29:55.034Z,98066.78
2023-04-02T16:33:03.703Z,98058.53
2023-04-02T16:36:01.557Z,98070.88
2023-04-02T16:39:07.149Z,98079.13
2023-04-02T16:41:39.333Z,98053.44
2023-04-02T16:44:25.609Z,98065.03
2023-04-02T16:47:31.651Z,98063.72
2023-04-02T16:50:16.868Z,98071.28
2023-04-02T16:52:56.460Z,98076.00
2023-04-02T16:55:51.057Z,98082.16
2023-04-02T16:58:39.404Z,98085.31
2023-04-02T17:01:11.927Z,98089.88
2023-04-02T17:04:09.037Z,98091.22
2023-04-02T17:06:46.477Z,98099.91
2023-04-02T17:09:50.645Z,98098.59
2023-04-02T17:12:28.864Z,98104.50
2023-04-02T17:15:20.939Z,98107.50
2023-04-02T17:17:58.494Z,98105.91
2023-04-02T17:20:30.439Z,98116.66
2023-04-02T17:22:59.143Z,98120.34
2023-04-02T17:25:28.344Z,98130.47
2023-04-02T17:27:56.456Z,98143.47
2023-04-02T17:30:43.633Z,98141.41
2023-04-02T17:33:15.935Z,98146.44
2023-04-02T17:35:56.525Z,98140.47
2023-04-02T17:38:43.174Z,98156.50
2023-04-02T17:41:37.230Z,98167.75
2023-04-02T17:44:20.396Z,98170.25
2023-04-02T17:47:23.190Z,98180.78
2023-04-02T17:49:55.708Z,98185.78
2023-04-02T17:52:32.729Z,98188.13
2023-04-02T17:55:14.387Z,98202.75
2023-04-02T17:58:05.217Z,98210.69
2023-04-02T18:00:44.797Z,98222.56
2023-04-02T18:03:25.366Z,98221.41
2023-04-02T18:06:15.862Z,98236.84
2023-04-02T18:08:55.511Z,98237.06
2023-04-02T18:11:42.066Z,98233.81
2023-04-02T18:14:46.353Z,98251.16
2023-04-02T18:17:19.523Z,98253.78
2023-04-02T18:19:49.213Z,98255.06
2023-04-02T18:22:29.384Z,98262.44
2023-04-02T18:25:05.663Z,98265.59
2023-04-02T18:27:53.940Z,98272.28
2023-04-02T18:30:36.288Z,98284.94
2023-04-02T18:33:33.531Z,98286.91
2023-04-02T18:36:21.258Z,98290.09
2023-04-02T18:39:06.586Z,98287.63
2023-04-02T18:42:05.779Z,98299.38
2023-04-02T18:44:49.330Z,98303.47
2023-04-02T18:47:41.006Z,98319.41
2023-04-02T18:50:29.617Z,98317.91
2023-04-02T18:52:56.490Z,98324.94
2023-04-02T18:55:28.064Z,98323.13
2023-04-02T18:58:02.435Z,98325.41
2023-04-02T19:00:36.553Z,98337.50
2023-04-02T19:03:25.152Z,98345.53
2023-04-02T19:05:56.627Z,98345.25
2023-04-02T19:08:31.494Z,98355.34
2023-04-02T19:11:01.847Z,98363.28
2023-04-02T19:13:28.673Z,98359.06
2023-04-02T19:16:18.057Z,98371.63
2023-04-02T19:18:59.616Z,98378.78
2023-04-02T19:21:42.388Z,98384.91
2023-04-02T19:24:12.375Z,98385.22
2023-04-02T19:27:07.767Z,98392.38
2023-04-02T19:29:49.380Z,98392.63
2023-04-02T19:32:16.067Z,98398.00
2023-04-02T19:34:52.884Z,98394.69
2023-04-02T19:37:39.615Z,98404.59
2023-04-02T19:40:25.449Z,98409.03
2023-04-02T19:42:54.234Z,98409.97
2023-04-02T19:45:38.977Z,98411.88
2023-04-02T19:48:21.717Z,98426.34
2023-04-02T19:50:49.435Z,98422.94
2023-04-02T19:53:17.095Z,98424.66
2023-04-02T19:55:44.766Z,98432.06
2023-04-02T19:58:33.014Z,98432.50
2023-04-02T20:01:02.238Z,98426.94
2023-04-02T20:03:30.380Z,98433.31
2023-04-02T20:05:59.565Z,98444.81
2023-04-02T20:08:27.439Z,98432.91
2023-04-02T20:10:54.905Z,98455.22
2023-04-02T20:13:21.617Z,98458.03
2023-04-02T20:15:49.164Z,98450.47
2023-04-02T20:18:15.935Z,98461.44
2023-04-02T20:20:45.954Z,98465.88
2023-04-02T20:23:12.659Z,98462.72
2023-04-02T20:25:45.498Z,98476.72
2023-04-02T20:28:12.503Z,98462.28
2023-04-02T20:30:39.470Z,98472.66
2023-04-02T20:33:06.370Z,98480.97
2023-04-02T20:35:34.619Z,98486.41
2023-04-02T20:38:06.352Z,98492.03
2023-04-02T20:40:33.729Z,98494.00
2023-04-02T20:43:00.401Z,98512.69
2023-04-02T20:45:29.318Z,98512.84
2023-04-02T20:47:56.695Z,98509.44
2023-04-02T20:50:23.541Z,98519.53
2023-04-02T20:52:50.966Z,98525.41
2023-04-02T20:55:17.968Z,98527.38
2023-04-02T20:57:44.685Z,98535.44
2023-04-02T21:00:12.233Z,98523.56
2023-04-02T21:02:39.005Z,98540.00
2023-04-02T21:05:05.839Z,98540.78
2023-04-02T21:07:32.594Z,98538.19
2023-04-02T21:09:59.294Z,98558.38
2023-04-02T21:12:26.017Z,98556.81
2023-04-02T21:14:57.355Z,98559.44
2023-04-02T21:17:24.426Z,98566.34
2023-04-02T21:19:51.204Z,98570.75
2023-04-02T21:22:17.945Z,98571.53
2023-04-02T21:24:44.660Z,98577.72
2023-04-02T21:27:11.399Z,98589.19
2023-04-02T21:29:38.075Z,98586.78
2023-04-02T21:32:14.472Z,98596.66
2023-04-02T21:34:47.969Z,98593.31
2023-04-02T21:37:14.684Z,98602.06
2023-04-02T21:39:41.516Z,98610.03
2023-04-02T21:42:08.279Z,98609.28
2023-04-02T21:44:35.005Z,98605.72
2023-04-02T21:47:01.769Z,98605.94
2023-04-02T21:49:29.742Z,98614.78
2023-04-02T21:51:56.522Z,98609.88
2023-04-02T21:54:23.458Z,98608.47
2023-04-02T21:56:50.428Z,98612.44
2023-04-02T21:59:17.662Z,98622.31
2023-04-02T22:01:53.616Z,98624.09
2023-04-02T22:04:25.563Z,98623.53
2023-04-02T22:06:52.894Z,98622.19
2023-04-02T22:09:22.629Z,98631.09
2023-04-02T22:11:52.738Z,98633.28
2023-04-02T22:14:19.898Z,98642.88
2023-04-02T22:16:46.697Z,98643.16
2023-04-02T22:19:16.000Z,98644.06
2023-04-02T22:21:43.342Z,98649.41
2023-04-02T22:24:14.159Z,98647.13
2023-04-02T22:26:41.243Z,98643.84
2023-04-02T22:29:08.620Z,98644.94
2023-04-02T22:31:35.629Z,98657.47
2023-04-02T22:34:04.210Z,98655.97
2023-04-02T22:36:31.186Z,98654.63
2023-04-02T22:38:59.088Z,98655.16
2023-04-02T22:41:28.370Z,98654.63
2023-04-02T22:43:56.478Z,98650.06
2023-04-02T22:46:24.510Z,98644.84
2023-04-02T22:48:51.559Z,98651.41
2023-04-02T22:51:20.848Z,98654.69
2023-04-02T22:53:48.303Z,98651.28
2023-04-02T22:56:18.357Z,98657.44
2023-04-02T22:58:45.577Z,98655.41
2023-04-02T23:01:21.473Z,98659.69
2023-04-02T23:03:48.851Z,98644.69
2023-04-02T23:06:16.865Z,98668.84
2023-04-02T23:08:44.737Z,98668.97
2023-04-02T23:11:21.962Z,98675.28
2023-04-02T23:13:50.438Z,98672.88
2023-04-02T23:16:18.417Z,98672.34
2023-04-02T23:18:49.297Z,98669.94
2023-04-02T23:21:18.227Z,98679.53
2023-04-02T23:23:45.675Z,98676.31
2023-04-02T23:26:15.571Z,98677.25
2023-04-02T23:28:42.602Z,98684.50
2023-04-02T23:31:14.204Z,98675.94
2023-04-02T23:33:41.089Z,98688.94
2023-04-02T23:36:09.786Z,98695.16
2023-04-02T23:38:36.652Z,98691.13
2023-04-02T23:41:03.581Z,98700.78
2023-04-02T23:43:30.462Z,98693.06
2023-04-02T23:45:57.235Z,98702.09
2023-04-02T23:48:23.989Z,98703.25
2023-04-02T23:50:50.841Z,98696.50
2023-04-02T23:53:18.757Z,98693.31
2023-04-02T23:55:45.948Z,98685.84
2023-04-02T23:58:12.745Z,98692.06
